createdAt,value
2023-03-20T00:00:36.152Z,83.75
2023-03-20T00:03:03.454Z,90.25
2023-03-20T00:05:31.319Z,76.50
2023-03-20T00:07:58.882Z,70.75
2023-03-20T00:10:37.957Z,81.25
2023-03-20T00:13:06.820Z,75.50
2023-03-20T00:15:38.131Z,65.50
2023-03-20T00:18:14.905Z,73.75
2023-03-20T00:20:41.959Z,68.75
2023-03-20T00:23:08.801Z,60.50
2023-03-20T00:25:36.656Z,71.50
2023-03-20T00:28:11.308Z,68.25
2023-03-20T00:30:38.087Z,77.50
2023-03-20T00:33:08.817Z,77.00
2023-03-20T00:35:36.001Z,87.75
2023-03-20T00:38:02.948Z,79.00
2023-03-20T00:40:32.001Z,83.75
2023-03-20T00:43:02.056Z,87.25
2023-03-20T00:45:31.923Z,95.25
2023-03-20T00:47:59.686Z,99.00
2023-03-20T00:50:32.327Z,102.75
2023-03-20T00:52:59.505Z,125.25
2023-03-20T00:55:29.365Z,143.75
2023-03-20T00:58:01.171Z,117.25
2023-03-20T01:00:39.490Z,127.00
2023-03-20T01:03:17.082Z,123.75
2023-03-20T01:05:44.989Z,121.00
2023-03-20T01:08:20.061Z,124.25
2023-03-20T01:10:52.618Z,115.50
2023-03-20T01:13:26.538Z,74.50
2023-03-20T01:15:55.376Z,76.25
2023-03-20T01:18:23.537Z,70.75
2023-03-20T01:20:53.049Z,79.50
2023-03-20T01:23:22.861Z,83.25
2023-03-20T01:25:50.406Z,88.25
2023-03-20T01:28:20.778Z,87.00
2023-03-20T01:30:48.100Z,84.00
2023-03-20T01:33:17.068Z,70.75
2023-03-20T01:35:46.950Z,72.00
2023-03-20T01:38:23.343Z,70.00
2023-03-20T01:41:03.525Z,73.75
2023-03-20T01:43:33.411Z,60.25
2023-03-20T01:46:09.746Z,64.75
2023-03-20T01:49:20.185Z,58.50
2023-03-20T01:51:49.583Z,60.00
2023-03-20T01:54:33.442Z,81.00
2023-03-20T01:57:14.518Z,76.00
2023-03-20T01:59:51.284Z,83.75
2023-03-20T02:02:26.426Z,88.50
2023-03-20T02:04:58.303Z,87.50
2023-03-20T02:07:25.769Z,91.25
2023-03-20T02:10:09.842Z,93.50
2023-03-20T02:12:59.064Z,81.75
2023-03-20T02:15:36.356Z,81.25
2023-03-20T02:18:11.651Z,75.00
2023-03-20T02:20:59.513Z,95.00
2023-03-20T02:23:45.674Z,88.25
2023-03-20T02:26:19.276Z,91.00
2023-03-20T02:28:50.457Z,93.25
2023-03-20T02:31:20.930Z,95.50
2023-03-20T02:33:54.001Z,93.75
2023-03-20T02:36:54.217Z,94.00
2023-03-20T02:39:24.582Z,95.00
2023-03-20T02:42:20.616Z,86.50
2023-03-20T02:45:14.822Z,81.25
2023-03-20T02:47:56.192Z,85.25
2023-03-20T02:50:41.359Z,89.00
2023-03-20T02:53:17.192Z,88.75
2023-03-20T02:55:52.515Z,74.75
2023-03-20T02:58:37.284Z,77.75
2023-03-20T03:01:13.439Z,79.50
2023-03-20T03:03:57.312Z,82.25
2023-03-20T03:06:25.015Z,86.75
2023-03-20T03:09:17.761Z,67.25
2023-03-20T03:12:06.905Z,64.75
2023-03-20T03:14:50.645Z,64.75
2023-03-20T03:17:21.500Z,66.00
2023-03-20T03:19:59.166Z,65.00
2023-03-20T03:22:26.778Z,64.50
2023-03-20T03:24:55.040Z,62.00
2023-03-20T03:27:31.832Z,67.75
2023-03-20T03:30:05.764Z,71.25
2023-03-20T03:32:51.338Z,62.00
2023-03-20T03:35:21.789Z,67.50
2023-03-20T03:38:03.893Z,56.75
2023-03-20T03:40:41.610Z,78.00
2023-03-20T03:43:47.145Z,74.75
2023-03-20T03:46:23.909Z,80.00
2023-03-20T03:48:57.457Z,78.50
2023-03-20T03:51:29.101Z,75.00
2023-03-20T03:54:18.641Z,75.00
2023-03-20T03:56:57.464Z,69.00
2023-03-20T03:59:30.422Z,68.25
2023-03-20T04:01:59.619Z,57.25
2023-03-20T04:04:28.971Z,57.25
2023-03-20T04:06:55.892Z,39.75
2023-03-20T04:09:22.940Z,48.00
2023-03-20T04:11:53.672Z,44.00
2023-03-20T04:14:20.727Z,41.75
2023-03-20T04:16:47.763Z,51.50
2023-03-20T04:19:14.577Z,76.00
2023-03-20T04:21:45.766Z,78.25
2023-03-20T04:24:12.597Z,62.25
2023-03-20T04:26:40.511Z,73.00
2023-03-20T04:29:07.483Z,58.00
2023-03-20T04:31:46.812Z,68.75
2023-03-20T04:34:36.904Z,69.00
2023-03-20T04:37:10.263Z,71.25
2023-03-20T04:39:48.838Z,78.25
2023-03-20T04:42:16.544Z,78.75
2023-03-20T04:44:43.428Z,76.25
2023-03-20T04:47:10.343Z,84.50
2023-03-20T04:49:41.058Z,81.25
2023-03-20T04:52:08.368Z,83.50
2023-03-20T04:54:43.748Z,69.75
2023-03-20T04:57:11.937Z,78.75
2023-03-20T04:59:39.307Z,73.75
2023-03-20T05:02:06.587Z,73.00
2023-03-20T05:04:33.396Z,81.00
2023-03-20T05:07:00.837Z,89.25
2023-03-20T05:09:36.056Z,89.00
2023-03-20T05:12:05.044Z,75.25
2023-03-20T05:14:50.562Z,79.75
2023-03-20T05:17:40.597Z,84.00
2023-03-20T05:20:30.388Z,84.50
2023-03-20T05:23:17.400Z,84.00
2023-03-20T05:26:07.691Z,82.50
2023-03-20T05:28:49.925Z,94.75
2023-03-20T05:31:37.053Z,153.50
2023-03-20T05:34:39.641Z,96.50
2023-03-20T05:37:16.151Z,84.00
2023-03-20T05:40:07.137Z,76.00
2023-03-20T05:42:46.010Z,80.00
2023-03-20T05:45:31.165Z,71.50
2023-03-20T05:48:21.220Z,70.00
2023-03-20T05:51:06.640Z,78.25
2023-03-20T05:53:47.961Z,110.50
2023-03-20T05:56:23.998Z,154.25
2023-03-20T05:59:15.013Z,95.25
2023-03-20T06:01:58.999Z,86.00
2023-03-20T06:04:30.789Z,84.00
2023-03-20T06:07:32.897Z,89.00
2023-03-20T06:10:03.902Z,82.25
2023-03-20T06:12:31.383Z,80.75
2023-03-20T06:14:58.440Z,71.00
2023-03-20T06:17:26.108Z,72.00
2023-03-20T06:19:59.050Z,69.00
2023-03-20T06:22:25.826Z,62.75
2023-03-20T06:24:54.346Z,66.25
2023-03-20T06:27:24.099Z,65.00
2023-03-20T06:29:51.069Z,63.00
2023-03-20T06:32:24.476Z,64.00
2023-03-20T06:34:53.371Z,90.50
2023-03-20T06:37:20.743Z,66.75
2023-03-20T06:39:47.584Z,65.75
2023-03-20T06:42:16.247Z,69.50
2023-03-20T06:44:44.089Z,87.75
2023-03-20T06:47:16.029Z,72.25
2023-03-20T06:49:45.940Z,75.75
2023-03-20T06:52:18.482Z,71.75
2023-03-20T06:54:52.216Z,77.75
2023-03-20T06:57:19.455Z,76.00
2023-03-20T06:59:46.368Z,78.50
2023-03-20T07:02:13.258Z,74.50
2023-03-20T07:04:41.221Z,77.25
2023-03-20T07:07:08.621Z,78.25
2023-03-20T07:09:35.810Z,82.00
2023-03-20T07:12:04.758Z,75.75
2023-03-20T07:14:33.249Z,70.00
2023-03-20T07:17:10.881Z,73.25
2023-03-20T07:19:39.058Z,80.00
2023-03-20T07:22:08.869Z,75.00
2023-03-20T07:24:40.056Z,77.25
2023-03-20T07:27:06.930Z,83.25
2023-03-20T07:29:34.773Z,79.50
2023-03-20T07:32:04.030Z,69.75
2023-03-20T07:34:34.955Z,63.25
2023-03-20T07:37:01.873Z,70.75
2023-03-20T07:39:31.050Z,67.75
2023-03-20T07:42:17.784Z,68.25
2023-03-20T07:44:51.910Z,68.50
2023-03-20T07:47:18.829Z,66.50
2023-03-20T07:49:46.859Z,62.50
2023-03-20T07:52:15.043Z,62.25
2023-03-20T07:54:41.818Z,58.50
2023-03-20T07:57:08.735Z,59.50
2023-03-20T07:59:35.664Z,62.50
2023-03-20T08:02:02.498Z,58.50
2023-03-20T08:04:29.280Z,51.50
2023-03-20T08:06:56.337Z,58.25
2023-03-20T08:09:23.247Z,51.00
2023-03-20T08:11:50.377Z,48.00
2023-03-20T08:14:17.394Z,46.75
2023-03-20T08:16:44.136Z,44.25
2023-03-20T08:19:11.198Z,46.00
2023-03-20T08:21:37.936Z,48.25
2023-03-20T08:24:04.997Z,42.50
2023-03-20T08:26:31.901Z,45.25
2023-03-20T08:28:59.896Z,50.00
2023-03-20T08:31:26.703Z,49.25
2023-03-20T08:33:53.525Z,47.00
2023-03-20T08:36:21.309Z,39.00
2023-03-20T08:38:49.581Z,49.50
2023-03-20T08:41:17.793Z,49.50
2023-03-20T08:43:44.659Z,56.50
2023-03-20T08:46:11.667Z,59.75
2023-03-20T08:48:38.479Z,52.00
2023-03-20T08:51:06.252Z,49.75
2023-03-20T08:53:33.132Z,53.75
2023-03-20T08:55:59.932Z,52.00
2023-03-20T08:58:27.400Z,53.00
2023-03-20T09:00:54.778Z,52.00
2023-03-20T09:03:21.792Z,44.00
2023-03-20T09:05:51.420Z,44.00
2023-03-20T09:08:18.661Z,51.67
2023-03-20T09:10:47.891Z,45.00
2023-03-20T09:13:26.618Z,44.33
2023-03-20T09:15:55.056Z,45.00
2023-03-20T09:18:22.275Z,54.67
2023-03-20T09:20:49.660Z,44.67
2023-03-20T09:23:16.919Z,52.00
2023-03-20T09:25:46.897Z,40.00
2023-03-20T09:28:13.964Z,37.00
2023-03-20T09:30:43.388Z,38.00
2023-03-20T09:33:10.360Z,32.00
2023-03-20T09:35:37.663Z,35.00
2023-03-20T09:38:04.497Z,29.67
2023-03-20T09:40:57.169Z,26.67
2023-03-20T09:43:33.701Z,33.00
2023-03-20T09:46:49.640Z,29.67
2023-03-20T09:49:23.339Z,32.67
2023-03-20T09:51:59.813Z,29.33
2023-03-20T09:54:52.768Z,26.67
2023-03-20T09:57:40.711Z,26.33
2023-03-20T10:00:22.366Z,21.33
2023-03-20T10:02:54.292Z,21.00
2023-03-20T10:05:25.668Z,21.00
2023-03-20T10:07:55.998Z,23.00
2023-03-20T10:10:49.163Z,17.67
2023-03-20T10:13:37.949Z,28.00
2023-03-20T10:16:18.005Z,20.50
2023-03-20T10:18:56.377Z,18.00
2023-03-20T10:21:32.644Z,16.67
2023-03-20T10:24:04.219Z,20.75
2023-03-20T10:26:35.359Z,19.75
2023-03-20T10:29:13.678Z,20.25
2023-03-20T10:31:57.495Z,17.00
2023-03-20T10:34:27.037Z,16.75
2023-03-20T10:37:29.016Z,18.00
2023-03-20T10:40:24.017Z,16.25
2023-03-20T10:42:53.963Z,17.75
2023-03-20T10:45:41.808Z,12.75
2023-03-20T10:48:32.092Z,10.50
2023-03-20T10:51:02.391Z,15.25
2023-03-20T10:53:44.419Z,12.50
2023-03-20T10:56:29.162Z,14.25
2023-03-20T10:59:04.647Z,10.25
2023-03-20T11:01:33.325Z,9.50
2023-03-20T11:04:01.977Z,9.75
2023-03-20T11:06:47.671Z,10.75
2023-03-20T11:09:23.460Z,10.00
2023-03-20T11:11:56.474Z,7.75
2023-03-20T11:14:32.999Z,17.00
2023-03-20T11:17:03.975Z,15.25
2023-03-20T11:19:39.330Z,14.00
2023-03-20T11:22:25.588Z,14.25
2023-03-20T11:25:07.433Z,10.75
2023-03-20T11:27:35.349Z,10.25
2023-03-20T11:30:05.940Z,13.25
2023-03-20T11:32:36.225Z,11.50
2023-03-20T11:35:24.191Z,7.00
2023-03-20T11:37:53.753Z,11.25
2023-03-20T11:40:31.262Z,11.25
2023-03-20T11:43:18.826Z,9.25
2023-03-20T11:45:49.113Z,12.75
2023-03-20T11:48:25.682Z,9.25
2023-03-20T11:51:02.728Z,13.75
2023-03-20T11:53:35.867Z,12.50
2023-03-20T11:56:24.834Z,12.25
2023-03-20T11:59:03.536Z,10.25
2023-03-20T12:01:44.572Z,12.25
2023-03-20T12:04:13.588Z,13.00
2023-03-20T12:06:48.832Z,12.25
2023-03-20T12:09:41.524Z,12.75
2023-03-20T12:12:19.549Z,13.25
2023-03-20T12:15:05.718Z,9.25
2023-03-20T12:17:38.281Z,11.75
2023-03-20T12:20:26.261Z,12.25
2023-03-20T12:23:09.462Z,8.00
2023-03-20T12:25:59.729Z,12.50
2023-03-20T12:28:36.308Z,8.75
2023-03-20T12:31:24.891Z,11.50
2023-03-20T12:34:02.725Z,9.75
2023-03-20T12:36:48.589Z,11.50
2023-03-20T12:39:18.702Z,11.00
2023-03-20T12:42:00.892Z,11.25
2023-03-20T12:44:41.614Z,12.50
2023-03-20T12:47:23.832Z,11.00
2023-03-20T12:49:58.182Z,12.25
2023-03-20T12:52:45.902Z,11.25
2023-03-20T12:55:40.462Z,4.25
2023-03-20T12:58:22.312Z,9.25
2023-03-20T13:01:06.257Z,10.25
2023-03-20T13:03:45.005Z,10.50
2023-03-20T13:06:21.539Z,8.00
2023-03-20T13:09:07.070Z,8.25
2023-03-20T13:11:49.308Z,11.00
2023-03-20T13:14:27.845Z,11.25
2023-03-20T13:16:58.336Z,8.25
2023-03-20T13:20:13.309Z,9.00
2023-03-20T13:23:16.519Z,9.00
2023-03-20T13:26:01.666Z,6.75
2023-03-20T13:29:00.664Z,6.00
2023-03-20T13:31:47.972Z,9.25
2023-03-20T13:34:59.382Z,10.25
2023-03-20T13:37:36.089Z,5.75
2023-03-20T13:40:19.123Z,5.00
2023-03-20T13:43:00.902Z,8.75
2023-03-20T13:45:39.548Z,8.75
2023-03-20T13:48:27.443Z,7.75
2023-03-20T13:51:08.584Z,10.00
2023-03-20T13:53:56.769Z,11.00
2023-03-20T13:57:02.794Z,13.50
2023-03-20T13:59:47.609Z,9.50
2023-03-20T14:02:17.947Z,8.50
2023-03-20T14:04:45.896Z,13.75
2023-03-20T14:07:39.004Z,21.50
2023-03-20T14:10:20.830Z,22.00
2023-03-20T14:13:01.499Z,15.50
2023-03-20T14:15:33.139Z,12.75
2023-03-20T14:18:08.051Z,15.50
2023-03-20T14:20:39.469Z,10.50
2023-03-20T14:23:07.539Z,16.75
2023-03-20T14:25:43.707Z,14.75
2023-03-20T14:28:13.279Z,14.00
2023-03-20T14:30:46.351Z,14.50
2023-03-20T14:33:13.212Z,15.25
2023-03-20T14:35:46.107Z,11.75
2023-03-20T14:38:21.507Z,13.50
2023-03-20T14:41:10.666Z,18.25
2023-03-20T14:44:31.810Z,15.50
2023-03-20T14:47:31.767Z,14.50
2023-03-20T14:50:37.608Z,13.75
2023-03-20T14:53:20.365Z,13.25
2023-03-20T14:56:02.792Z,14.00
2023-03-20T14:58:49.786Z,16.00
2023-03-20T15:01:22.466Z,16.75
2023-03-20T15:03:52.892Z,14.75
2023-03-20T15:06:22.442Z,14.00
2023-03-20T15:08:55.652Z,16.50
2023-03-20T15:11:23.836Z,18.50
2023-03-20T15:13:52.453Z,14.00
2023-03-20T15:16:28.176Z,18.50
2023-03-20T15:18:55.792Z,21.75
2023-03-20T15:21:31.199Z,14.75
2023-03-20T15:23:58.844Z,18.00
2023-03-20T15:26:27.743Z,12.75
2023-03-20T15:29:08.063Z,21.25
2023-03-20T15:31:38.262Z,21.50
2023-03-20T15:34:26.929Z,16.50
2023-03-20T15:36:59.575Z,19.75
2023-03-20T15:39:41.103Z,14.75
2023-03-20T15:42:14.335Z,30.33
2023-03-20T15:44:44.808Z,36.33
2023-03-20T15:47:17.422Z,23.33
2023-03-20T15:49:51.984Z,29.33
2023-03-20T15:52:32.964Z,13.25
2023-03-20T15:55:05.478Z,16.25
2023-03-20T15:57:38.592Z,29.67
2023-03-20T16:00:10.163Z,38.33
2023-03-20T16:02:37.906Z,22.00
2023-03-20T16:05:05.826Z,22.00
2023-03-20T16:07:33.846Z,14.67
2023-03-20T16:10:00.754Z,23.00
2023-03-20T16:12:27.759Z,31.33
2023-03-20T16:14:55.975Z,22.00
2023-03-20T16:17:25.155Z,31.00
2023-03-20T16:19:52.165Z,41.33
2023-03-20T16:22:28.268Z,46.00
2023-03-20T16:24:59.175Z,31.00
2023-03-20T16:27:33.038Z,30.00
2023-03-20T16:30:03.649Z,25.00
2023-03-20T16:32:40.389Z,33.67
2023-03-20T16:35:19.969Z,49.67
2023-03-20T16:37:52.223Z,33.00
2023-03-20T16:40:33.840Z,38.33
2023-03-20T16:43:16.878Z,74.75
2023-03-20T16:45:53.366Z,77.00
2023-03-20T16:48:23.404Z,58.00
2023-03-20T16:51:04.090Z,39.67
2023-03-20T16:53:37.982Z,93.75
2023-03-20T16:56:10.692Z,65.00
2023-03-20T16:58:41.365Z,63.67
2023-03-20T17:01:16.211Z,70.25
2023-03-20T17:03:48.264Z,64.50
2023-03-20T17:06:21.713Z,70.75
2023-03-20T17:09:10.338Z,130.50
2023-03-20T17:11:39.265Z,64.50
2023-03-20T17:14:06.261Z,64.75
2023-03-20T17:16:34.257Z,67.00
2023-03-20T17:19:03.028Z,78.75
2023-03-20T17:21:30.172Z,72.00
2023-03-20T17:23:57.584Z,67.50
2023-03-20T17:26:24.909Z,38.67
2023-03-20T17:28:51.810Z,69.00
2023-03-20T17:31:19.347Z,78.00
2023-03-20T17:33:46.953Z,76.00
2023-03-20T17:36:22.017Z,105.25
2023-03-20T17:38:49.245Z,132.50
2023-03-20T17:41:18.109Z,148.50
2023-03-20T17:43:45.548Z,170.00
2023-03-20T17:46:19.262Z,159.75
2023-03-20T17:48:47.467Z,150.25
2023-03-20T17:51:14.624Z,124.25
2023-03-20T17:53:41.424Z,163.50
2023-03-20T17:56:13.588Z,175.50
2023-03-20T17:58:44.617Z,180.75
2023-03-20T18:01:12.567Z,170.75
2023-03-20T18:03:39.924Z,170.25
2023-03-20T18:06:07.591Z,204.75
2023-03-20T18:08:34.413Z,220.75
2023-03-20T18:11:01.286Z,196.25
2023-03-20T18:13:29.339Z,103.75
2023-03-20T18:15:58.303Z,77.50
2023-03-20T18:18:25.969Z,101.75
2023-03-20T18:20:54.949Z,131.75
2023-03-20T18:23:23.096Z,119.50
2023-03-20T18:25:50.225Z,205.50
2023-03-20T18:28:23.353Z,180.50
2023-03-20T18:30:50.734Z,158.00
2023-03-20T18:33:17.940Z,138.75
2023-03-20T18:35:45.268Z,160.50
2023-03-20T18:38:16.144Z,148.75
2023-03-20T18:40:43.840Z,141.00
2023-03-20T18:43:11.154Z,138.00
2023-03-20T18:45:39.659Z,140.50
2023-03-20T18:48:07.742Z,153.00
2023-03-20T18:50:38.012Z,138.00
2023-03-20T18:53:06.381Z,134.75
2023-03-20T18:55:34.274Z,127.00
2023-03-20T18:58:03.896Z,124.00
2023-03-20T19:00:38.401Z,122.50
2023-03-20T19:03:05.851Z,121.75
2023-03-20T19:05:33.061Z,263.00
2023-03-20T19:08:01.529Z,180.75
2023-03-20T19:10:28.479Z,154.00
2023-03-20T19:12:56.237Z,127.75
2023-03-20T19:15:26.564Z,125.75
2023-03-20T19:17:54.681Z,144.50
2023-03-20T19:20:36.127Z,142.00
2023-03-20T19:23:05.226Z,132.50
2023-03-20T19:25:33.029Z,132.50
2023-03-20T19:28:00.700Z,143.25
2023-03-20T19:30:39.380Z,137.50
2023-03-20T19:33:07.806Z,136.50
2023-03-20T19:38:22.668Z,133.50
2023-03-20T19:40:54.236Z,141.75
2023-03-20T19:43:22.149Z,209.50
2023-03-20T19:45:51.945Z,200.75
2023-03-20T19:48:22.422Z,167.75
2023-03-20T19:50:51.143Z,136.25
2023-03-20T19:53:21.549Z,127.00
2023-03-20T19:55:49.149Z,114.50
2023-03-20T19:58:15.985Z,100.50
2023-03-20T20:00:57.325Z,106.00
2023-03-20T20:03:26.719Z,113.25
2023-03-20T20:05:54.214Z,97.50
2023-03-20T20:08:44.254Z,108.75
2023-03-20T20:11:13.152Z,128.50
2023-03-20T20:14:03.649Z,124.50
2023-03-20T20:16:29.735Z,111.25
2023-03-20T20:18:56.570Z,108.50
2023-03-20T20:24:11.645Z,110.50
2023-03-20T20:26:47.931Z,104.75
2023-03-20T20:29:21.328Z,94.25
2023-03-20T20:31:48.345Z,102.25
2023-03-20T20:39:50.232Z,112.00
2023-03-20T20:42:17.893Z,106.75
2023-03-20T20:44:45.342Z,101.25
2023-03-20T20:47:13.855Z,92.75
2023-03-20T20:49:41.168Z,106.00
2023-03-20T20:52:09.365Z,118.75
2023-03-20T20:54:36.194Z,113.25
2023-03-20T20:57:04.395Z,116.25
2023-03-20T20:59:31.261Z,115.75
2023-03-20T21:01:58.500Z,102.50
2023-03-20T21:04:25.647Z,107.50
2023-03-20T21:07:10.602Z,95.50
2023-03-20T21:09:38.618Z,87.00
2023-03-20T21:12:06.314Z,82.25
2023-03-20T21:14:33.689Z,104.25
2023-03-20T21:17:01.505Z,81.25
2023-03-20T21:19:40.174Z,83.75
2023-03-20T21:22:09.514Z,120.25
2023-03-20T21:24:37.107Z,117.00
2023-03-20T21:27:06.839Z,123.75
2023-03-20T21:29:34.627Z,178.50
2023-03-20T21:32:01.447Z,156.50
2023-03-20T21:34:31.982Z,135.00
2023-03-20T21:37:02.953Z,148.50
2023-03-20T21:39:50.338Z,150.25
2023-03-20T21:42:17.774Z,151.25
2023-03-20T21:45:35.689Z,129.75
2023-03-20T21:56:41.906Z,186.75
2023-03-20T21:59:25.289Z,152.50
2023-03-20T22:02:00.296Z,130.50
2023-03-20T22:05:09.788Z,135.25
2023-03-20T22:07:38.357Z,135.00
2023-03-20T22:10:39.375Z,134.75
2023-03-20T22:16:17.136Z,129.50
2023-03-20T22:27:38.502Z,190.00
2023-03-20T22:30:01.678Z,78.00
2023-03-20T22:32:48.581Z,83.25
2023-03-20T22:35:40.892Z,83.25
2023-03-20T22:41:36.179Z,85.00
2023-03-20T22:44:13.740Z,97.25
2023-03-20T22:46:22.703Z,99.25
2023-03-20T22:48:49.450Z,92.00
2023-03-20T22:51:18.219Z,106.75
2023-03-20T22:53:45.271Z,101.25
2023-03-20T22:56:12.170Z,99.00
2023-03-20T22:58:39.002Z,96.50
2023-03-20T23:01:07.741Z,95.25
2023-03-20T23:03:41.337Z,107.00
2023-03-20T23:06:12.456Z,115.75
2023-03-20T23:08:50.340Z,103.50
2023-03-20T23:11:20.054Z,106.50
2023-03-20T23:13:46.903Z,96.75
2023-03-20T23:16:13.793Z,106.00
2023-03-20T23:18:41.157Z,87.50
2023-03-20T23:21:08.947Z,84.00
2023-03-20T23:23:35.950Z,73.25
2023-03-20T23:26:15.656Z,74.25
2023-03-20T23:28:45.152Z,80.25
2023-03-20T23:31:24.039Z,83.50
2023-03-20T23:33:54.347Z,79.00
2023-03-20T23:36:35.534Z,96.50
2023-03-20T23:39:05.835Z,96.00
2023-03-20T23:42:01.695Z,86.00
2023-03-20T23:44:19.715Z,90.75
2023-03-20T23:46:48.233Z,91.00
2023-03-20T23:49:16.474Z,131.75
2023-03-20T23:51:43.616Z,93.00
2023-03-20T23:54:11.125Z,89.00
2023-03-20T23:56:38.082Z,91.75
2023-03-20T23:59:14.980Z,99.25
